Santa Paula, CA

1:32 AM PDT on April 19, 2015 (GMT -0700)
Point Mugu Naval Air Station | | Change Station
CLOSE
Current Station
Airport
Location: Point Mugu,
Elevation: 13 ft
Nearby Weather Stations

Elev 13 ft 34.12 °N, 119.12 °W | Updated 36 minutes ago

Clear
Clear
55 °F
Feels Like 55 °F
N
4
Wind Variable Wind from NNE
Gusts mph

Today
High -- | Low -- °F
--% Chance of Precip.
Yesterday
High -- | Low -- °F
Precip. -- in
6:20 AM 7:31 PM
New Moon, 0% visible
Pressure 29.99 in
Visibility 8.0 miles
Clouds
Dew Point 51 °F
Humidity 86%
Rainfall 0.00 in
Snow Depth Not available.
UV Not available.
Pollen 9.40 out of 12
Air Quality Not available.
Flu Activity Sporadic
METAR KNTD 190756Z 03003KT 8SM 13/11 A2998 RMK AO2 SLP153 T01280106 402170094 CHINO N $

More Conditions Fewer Conditions

Pressure 29.99 in
Visibility 8.0 miles
Clouds
Dew Point 51 °F
Humidity 86%
Rainfall 0.00 in
Snow Depth Not available.
UV Not available.
Pollen 9.40 out of 12
Air Quality Not available.
Flu Activity Sporadic
METAR KNTD 190756Z 03003KT 8SM 13/11 A2998 RMK AO2 SLP153 T01280106 402170094 CHINO N $

More Conditions Fewer Conditions

10-Day Weather Forecast

Almanac

Astronomy

Apr. 19, 2015 Rise Set
Actual Time
Civil Twilight
Nautical Twilight
Astronomical Twilight
Moon
Length of Visible Light
Length of Day
Tomorrow will be .
, % of the Moon is Illuminated

Today's Extremes

State Highs State Lows

Community

WunderPhotos

Upload Photos

1,814,723 photos uploaded!

WunderBlogs® & News

Nearby

Air Quality

  Air Quality AQ Index Pollutant
Not available.

Snow Depth

Station Depth Elevation

Earthquake Activity

City Distance Mag. Time & Date
Minimum magnitude displayed is 2.5.

Coastal Water Temperatures

Place Temperature

Stations

Nearby Weather Stations

Station Location Temp. Windchill Dew Point Humidity Wind Precip. Elev Updated Type